createdAt,value
2023-05-30T00:01:14.512Z,3.50
2023-05-30T00:04:01.570Z,3.50
2023-05-30T00:06:48.232Z,4.00
2023-05-30T00:09:33.776Z,4.07
2023-05-30T00:12:18.949Z,3.07
2023-05-30T00:15:04.812Z,3.77
2023-05-30T00:17:53.664Z,4.17
2023-05-30T00:20:39.619Z,3.50
2023-05-30T00:23:25.009Z,3.03
2023-05-30T00:26:10.393Z,3.43
2023-05-30T00:28:55.733Z,3.27
2023-05-30T00:31:41.028Z,4.33
2023-05-30T00:34:26.363Z,4.37
2023-05-30T00:37:11.573Z,3.70
2023-05-30T00:39:56.837Z,4.33
2023-05-30T00:42:42.057Z,3.83
2023-05-30T00:45:27.532Z,2.77
2023-05-30T00:48:13.842Z,2.73
2023-05-30T00:50:59.487Z,3.37
2023-05-30T00:53:45.164Z,2.93
2023-05-30T00:56:31.270Z,3.63
2023-05-30T00:59:17.516Z,4.37
2023-05-30T01:02:03.718Z,6.83
2023-05-30T01:04:49.461Z,4.43
2023-05-30T01:07:35.078Z,3.63
2023-05-30T01:10:21.374Z,5.63
2023-05-30T01:13:15.878Z,4.40
2023-05-30T01:16:08.723Z,3.83
2023-05-30T01:19:06.893Z,3.65
2023-05-30T01:22:00.823Z,7.13
2023-05-30T01:25:05.714Z,4.73
2023-05-30T01:28:07.869Z,4.63
2023-05-30T01:30:54.359Z,3.00
2023-05-30T01:33:43.005Z,3.07
2023-05-30T01:36:30.075Z,6.07
2023-05-30T01:39:15.439Z,4.00
2023-05-30T01:42:10.004Z,4.07
2023-05-30T01:45:17.299Z,3.70
2023-05-30T01:48:10.015Z,2.97
2023-05-30T01:50:56.750Z,4.50
2023-05-30T01:53:51.326Z,6.23
2023-05-30T01:56:38.752Z,3.17
2023-05-30T01:59:27.155Z,3.93
2023-05-30T02:02:13.186Z,4.77
2023-05-30T02:04:58.649Z,3.20
2023-05-30T02:07:43.888Z,4.80
2023-05-30T02:10:29.094Z,4.93
2023-05-30T02:13:14.402Z,2.60
2023-05-30T02:15:59.779Z,3.37
2023-05-30T02:18:46.501Z,3.93
2023-05-30T02:21:32.095Z,4.13
2023-05-30T02:24:17.822Z,2.27
2023-05-30T02:27:03.185Z,3.40
2023-05-30T02:29:48.394Z,4.20
2023-05-30T02:32:33.847Z,2.33
2023-05-30T02:35:19.731Z,3.83
2023-05-30T02:38:06.725Z,5.73
2023-05-30T02:40:52.223Z,5.00
2023-05-30T02:43:37.389Z,3.93
2023-05-30T02:46:22.637Z,4.00
2023-05-30T02:49:07.928Z,3.50
2023-05-30T02:51:53.173Z,4.07
2023-05-30T02:54:42.173Z,6.47
2023-05-30T02:57:46.529Z,8.27
2023-05-30T03:00:53.456Z,9.50
2023-05-30T03:03:43.187Z,8.00
2023-05-30T03:06:41.620Z,6.40
2023-05-30T03:09:46.890Z,5.30
2023-05-30T03:12:34.047Z,5.30
2023-05-30T03:15:21.963Z,6.00
2023-05-30T03:18:07.465Z,6.90
2023-05-30T03:20:53.937Z,4.30
2023-05-30T03:23:41.847Z,6.20
2023-05-30T03:26:28.521Z,3.57
2023-05-30T03:29:14.364Z,3.77
2023-05-30T03:31:59.638Z,5.37
2023-05-30T03:34:46.355Z,4.20
2023-05-30T03:37:34.360Z,5.63
2023-05-30T03:40:19.962Z,4.57
2023-05-30T03:44:07.069Z,4.53
2023-05-30T03:46:52.401Z,6.67
2023-05-30T03:49:37.765Z,3.23
2023-05-30T03:52:23.230Z,6.27
2023-05-30T03:55:09.119Z,4.13
2023-05-30T03:57:54.645Z,3.87
2023-05-30T04:00:40.115Z,4.40
2023-05-30T04:03:25.925Z,6.70
2023-05-30T04:06:11.772Z,4.57
2023-05-30T04:08:58.421Z,5.50
2023-05-30T04:11:44.195Z,4.27
2023-05-30T04:14:29.314Z,6.73
2023-05-30T04:17:15.851Z,4.73
2023-05-30T04:20:10.480Z,5.67
2023-05-30T04:22:58.407Z,6.73
2023-05-30T04:25:45.730Z,6.27
2023-05-30T04:28:32.071Z,8.37
2023-05-30T04:31:21.823Z,7.17
2023-05-30T04:34:09.867Z,3.77
2023-05-30T04:36:57.819Z,7.57
2023-05-30T04:39:45.464Z,6.57
2023-05-30T04:42:34.848Z,6.47
2023-05-30T04:45:27.919Z,6.50
2023-05-30T04:48:13.407Z,8.97
2023-05-30T04:51:00.585Z,4.73
2023-05-30T04:53:46.282Z,6.50
2023-05-30T04:56:32.008Z,12.93
2023-05-30T04:59:17.702Z,7.77
2023-05-30T05:36:39.680Z,22.40
2023-05-30T05:39:24.887Z,18.90
2023-05-30T05:42:10.147Z,14.23
2023-05-30T05:44:55.433Z,14.87
2023-05-30T05:47:41.008Z,14.87
2023-05-30T05:50:26.264Z,10.93
2023-05-30T05:53:11.455Z,12.53
2023-05-30T05:55:56.723Z,12.77
2023-05-30T05:58:42.048Z,13.27
2023-05-30T06:01:27.122Z,8.83
2023-05-30T06:04:13.561Z,15.70
2023-05-30T06:06:59.353Z,9.27
2023-05-30T06:09:44.752Z,7.10
2023-05-30T06:12:29.940Z,9.90
2023-05-30T06:15:15.155Z,6.63
2023-05-30T06:18:00.618Z,7.03
2023-05-30T06:20:45.945Z,6.30
2023-05-30T06:23:31.795Z,7.03
2023-05-30T06:26:17.148Z,9.90
2023-05-30T06:29:02.389Z,6.97
2023-05-30T06:31:48.031Z,7.47
2023-05-30T06:34:33.336Z,9.90
2023-05-30T06:37:18.677Z,7.13
2023-05-30T06:40:04.154Z,5.87
2023-05-30T06:42:49.832Z,8.33
2023-05-30T06:45:35.166Z,7.37
2023-05-30T06:48:20.634Z,6.17
2023-05-30T06:51:07.374Z,6.20
2023-05-30T06:53:53.183Z,7.00
2023-05-30T06:56:39.143Z,5.20
2023-05-30T06:59:24.539Z,6.13
2023-05-30T07:02:11.293Z,5.47
2023-05-30T07:04:56.838Z,5.07
2023-05-30T07:07:45.502Z,5.10
2023-05-30T07:10:30.987Z,7.43
2023-05-30T07:13:16.632Z,4.87
2023-05-30T07:16:02.232Z,5.90
2023-05-30T07:18:50.269Z,6.17
2023-05-30T07:21:40.554Z,4.55
2023-05-30T07:24:26.280Z,7.20
2023-05-30T07:27:11.826Z,5.33
2023-05-30T07:29:57.473Z,6.43
2023-05-30T07:32:42.991Z,6.13
2023-05-30T07:35:28.064Z,3.50
2023-05-30T07:38:13.484Z,6.30
2023-05-30T07:40:58.976Z,6.70
2023-05-30T07:43:44.644Z,6.37
2023-05-30T07:46:30.034Z,5.43
2023-05-30T07:49:15.733Z,4.00
2023-05-30T07:52:01.080Z,5.27
2023-05-30T07:54:46.435Z,3.93
2023-05-30T07:57:32.346Z,6.57
2023-05-30T08:00:18.014Z,5.63
2023-05-30T08:03:03.523Z,3.07
2023-05-30T08:05:52.177Z,6.93
2023-05-30T08:08:37.736Z,3.43
2023-05-30T08:11:22.883Z,5.03
2023-05-30T08:14:08.387Z,3.47
2023-05-30T08:16:53.652Z,3.30
2023-05-30T08:19:39.027Z,3.53
2023-05-30T08:22:25.269Z,3.77
2023-05-30T08:25:11.771Z,5.43
2023-05-30T08:28:00.249Z,3.47
2023-05-30T08:30:50.234Z,5.90
2023-05-30T08:33:36.922Z,3.50
2023-05-30T08:36:22.974Z,3.87
2023-05-30T08:39:15.169Z,3.67
2023-05-30T08:42:02.300Z,4.10
2023-05-30T08:44:47.877Z,4.87
2023-05-30T08:47:34.522Z,4.47
2023-05-30T08:50:21.763Z,4.90
2023-05-30T08:53:18.242Z,4.00
2023-05-30T08:56:08.482Z,4.17
2023-05-30T08:58:54.859Z,4.50
2023-05-30T09:01:41.050Z,4.67
2023-05-30T09:04:26.787Z,4.93
2023-05-30T09:07:15.478Z,3.53
2023-05-30T09:10:01.973Z,3.77
2023-05-30T09:12:47.792Z,3.97
2023-05-30T09:15:33.139Z,2.80
2023-05-30T09:18:18.548Z,2.83
2023-05-30T09:21:04.798Z,4.83
2023-05-30T09:23:51.371Z,3.17
2023-05-30T09:26:36.599Z,3.00
2023-05-30T09:29:21.892Z,4.47
2023-05-30T09:32:07.720Z,4.00
2023-05-30T09:34:58.379Z,7.07
2023-05-30T09:37:47.986Z,4.20
2023-05-30T09:40:35.012Z,4.27
2023-05-30T09:43:35.253Z,3.43
2023-05-30T09:46:28.462Z,5.40
2023-05-30T09:49:14.496Z,3.45
2023-05-30T09:52:00.297Z,5.33
2023-05-30T09:54:45.858Z,4.90
2023-05-30T09:57:31.308Z,3.27
2023-05-30T10:00:23.506Z,3.13
2023-05-30T10:03:08.944Z,2.63
2023-05-30T10:05:57.544Z,3.30
2023-05-30T10:08:46.492Z,3.73
2023-05-30T10:11:32.705Z,3.23
2023-05-30T10:14:18.615Z,2.97
2023-05-30T10:17:09.105Z,3.93
2023-05-30T10:20:03.448Z,3.97
2023-05-30T10:22:54.075Z,4.57
2023-05-30T10:25:47.763Z,3.93
2023-05-30T10:28:35.718Z,4.88
2023-05-30T10:31:22.785Z,3.93
2023-05-30T10:34:12.893Z,3.30
2023-05-30T10:37:00.633Z,2.17
2023-05-30T10:40:10.086Z,3.00
2023-05-30T10:43:06.460Z,3.77
2023-05-30T10:46:09.492Z,3.17
2023-05-30T10:49:01.168Z,5.00
2023-05-30T10:52:07.297Z,8.33
2023-05-30T10:54:52.963Z,1.50
2023-05-30T10:57:38.220Z,2.97
2023-05-30T11:00:28.537Z,4.27
2023-05-30T11:03:37.409Z,2.33
2023-05-30T11:06:23.361Z,3.67
2023-05-30T11:09:13.147Z,2.43
2023-05-30T11:12:00.495Z,2.93
2023-05-30T11:14:58.640Z,4.57
2023-05-30T11:17:44.785Z,2.77
2023-05-30T11:20:32.383Z,3.37
2023-05-30T11:23:18.992Z,2.67
2023-05-30T11:26:04.714Z,4.20
2023-05-30T11:28:51.664Z,7.13
2023-05-30T11:31:38.369Z,8.70
2023-05-30T11:34:24.170Z,3.23
2023-05-30T11:37:12.434Z,3.03
2023-05-30T11:39:58.057Z,6.43
2023-05-30T11:42:43.688Z,4.97
2023-05-30T11:45:33.273Z,5.00
2023-05-30T11:48:19.896Z,4.53
2023-05-30T11:51:07.351Z,3.87
2023-05-30T11:53:52.594Z,2.47
2023-05-30T11:56:38.059Z,3.90
2023-05-30T11:59:28.210Z,4.10
2023-05-30T12:02:13.891Z,3.27
2023-05-30T12:05:03.977Z,5.93
2023-05-30T12:07:54.156Z,2.63
2023-05-30T12:10:42.244Z,3.40
2023-05-30T12:13:33.745Z,4.17
2023-05-30T12:16:26.128Z,5.30
2023-05-30T12:19:13.003Z,4.00
2023-05-30T12:22:10.729Z,3.30
2023-05-30T12:24:56.314Z,2.23
2023-05-30T12:27:44.597Z,3.60
2023-05-30T12:30:37.422Z,5.53
2023-05-30T12:33:24.706Z,2.40
2023-05-30T12:36:22.243Z,3.00
2023-05-30T12:39:30.356Z,4.87
2023-05-30T12:42:31.728Z,4.60
2023-05-30T12:45:17.528Z,3.63
2023-05-30T12:48:02.975Z,3.10
2023-05-30T12:50:49.176Z,2.50
2023-05-30T12:53:34.551Z,3.93
2023-05-30T12:56:20.461Z,3.83
2023-05-30T12:59:06.623Z,3.60
2023-05-30T13:01:52.364Z,4.53
2023-05-30T13:04:39.360Z,4.30
2023-05-30T13:07:24.611Z,3.87
2023-05-30T13:10:10.575Z,4.70
2023-05-30T13:12:56.193Z,6.67
2023-05-30T13:15:42.024Z,7.40
2023-05-30T13:18:27.831Z,4.73
2023-05-30T13:21:13.036Z,4.73
2023-05-30T13:23:58.664Z,5.13
2023-05-30T13:26:44.168Z,4.53
2023-05-30T13:29:29.570Z,2.83
2023-05-30T13:32:14.775Z,4.47
2023-05-30T13:34:59.974Z,5.73
2023-05-30T13:37:45.130Z,7.33
2023-05-30T13:40:30.914Z,4.63
2023-05-30T13:43:16.106Z,5.73
2023-05-30T13:46:01.504Z,3.23
2023-05-30T13:48:47.011Z,4.77
2023-05-30T13:51:33.487Z,3.00
2023-05-30T13:54:18.740Z,4.30
2023-05-30T13:57:04.409Z,3.13
2023-05-30T13:59:49.884Z,3.93
2023-05-30T14:02:35.273Z,5.03
2023-05-30T14:05:21.528Z,3.80
2023-05-30T14:08:06.744Z,4.97
2023-05-30T14:10:52.225Z,4.07
2023-05-30T14:13:38.289Z,4.83
2023-05-30T14:16:24.010Z,5.37
2023-05-30T14:19:12.400Z,14.00
2023-05-30T14:21:57.584Z,14.27
2023-05-30T14:24:43.123Z,7.17
2023-05-30T14:27:28.475Z,6.37
2023-05-30T14:30:17.743Z,5.60
2023-05-30T14:33:04.021Z,2.80
2023-05-30T14:35:49.678Z,3.57
2023-05-30T14:38:36.153Z,4.50
2023-05-30T14:41:22.675Z,4.50
2023-05-30T14:44:08.313Z,3.57
2023-05-30T14:46:53.943Z,5.10
2023-05-30T14:49:39.511Z,8.13
2023-05-30T14:52:25.596Z,6.50
2023-05-30T14:55:11.757Z,8.67
2023-05-30T14:57:56.890Z,4.97
2023-05-30T15:00:42.260Z,4.83
2023-05-30T15:03:27.647Z,6.03
2023-05-30T15:06:13.401Z,4.57
2023-05-30T15:09:01.769Z,4.67
2023-05-30T15:11:47.822Z,6.23
2023-05-30T15:14:33.298Z,6.80
2023-05-30T15:17:19.533Z,5.00
2023-05-30T15:20:05.787Z,3.67
2023-05-30T15:22:51.136Z,5.07
2023-05-30T15:25:36.662Z,5.43
2023-05-30T15:28:22.175Z,3.27
2023-05-30T15:31:07.411Z,3.73
2023-05-30T15:33:52.874Z,5.90
2023-05-30T15:36:38.595Z,5.17
2023-05-30T15:39:23.875Z,3.63
2023-05-30T15:42:09.202Z,5.73
2023-05-30T15:44:54.627Z,3.87
2023-05-30T15:47:39.889Z,3.47
2023-05-30T15:50:25.374Z,4.53
2023-05-30T15:53:10.687Z,7.07
2023-05-30T15:55:56.068Z,3.43
2023-05-30T15:58:41.456Z,4.50
2023-05-30T16:01:26.824Z,3.30
2023-05-30T16:04:12.546Z,3.13
2023-05-30T16:06:58.454Z,7.43
2023-05-30T16:09:43.950Z,4.37
2023-05-30T16:12:29.424Z,2.37
2023-05-30T16:15:14.898Z,5.17
2023-05-30T16:18:00.387Z,3.93
2023-05-30T16:20:45.728Z,5.80
2023-05-30T16:23:30.821Z,4.07
2023-05-30T16:26:16.595Z,3.17
2023-05-30T16:29:01.903Z,2.57
2023-05-30T16:31:47.308Z,3.87
2023-05-30T16:34:32.710Z,6.20
2023-05-30T16:37:18.327Z,6.10
2023-05-30T16:40:05.593Z,8.37
2023-05-30T16:42:52.324Z,4.17
2023-05-30T16:45:37.643Z,5.73
2023-05-30T16:48:22.922Z,6.67
2023-05-30T16:51:08.328Z,4.50
2023-05-30T16:53:56.635Z,3.80
2023-05-30T16:56:41.946Z,2.77
2023-05-30T16:59:27.336Z,5.00
2023-05-30T17:02:15.283Z,3.50
2023-05-30T17:05:02.043Z,6.93
2023-05-30T17:07:47.954Z,2.90
2023-05-30T17:10:33.552Z,6.57
2023-05-30T17:13:19.932Z,7.63
2023-05-30T17:16:08.711Z,4.60
2023-05-30T17:18:54.200Z,7.33
2023-05-30T17:21:39.930Z,5.10
2023-05-30T17:24:27.308Z,6.07
2023-05-30T17:27:13.227Z,3.20
2023-05-30T17:29:58.812Z,4.83
2023-05-30T17:32:44.248Z,5.10
2023-05-30T17:35:29.772Z,6.53
2023-05-30T17:38:15.173Z,5.90
2023-05-30T17:41:00.990Z,5.80
2023-05-30T17:43:46.734Z,7.67
2023-05-30T17:46:32.447Z,5.97
2023-05-30T17:49:18.226Z,4.90
2023-05-30T17:52:03.742Z,6.57
2023-05-30T17:54:49.226Z,2.60
2023-05-30T17:57:36.715Z,12.00
2023-05-30T18:00:23.613Z,9.67
2023-05-30T18:03:12.359Z,8.03
2023-05-30T18:05:57.915Z,4.13
2023-05-30T18:08:43.384Z,3.10
2023-05-30T18:11:28.718Z,4.30
2023-05-30T18:14:16.846Z,3.00
2023-05-30T18:17:02.632Z,3.27
2023-05-30T18:19:49.247Z,4.40
2023-05-30T18:22:36.719Z,3.27
2023-05-30T18:25:22.316Z,7.03
2023-05-30T18:28:08.667Z,5.40
2023-05-30T18:30:54.011Z,6.47
2023-05-30T18:33:39.328Z,4.57
2023-05-30T18:36:24.563Z,3.93
2023-05-30T18:39:09.898Z,2.40
2023-05-30T18:41:55.285Z,3.03
2023-05-30T18:44:41.106Z,5.03
2023-05-30T18:47:26.416Z,6.00
2023-05-30T18:50:12.848Z,4.37
2023-05-30T18:52:58.441Z,4.77
2023-05-30T18:55:43.819Z,4.30
2023-05-30T18:58:29.212Z,5.87
2023-05-30T19:01:14.604Z,4.30
2023-05-30T19:04:00.442Z,4.13
2023-05-30T19:06:45.730Z,4.67
2023-05-30T19:09:31.830Z,5.07
2023-05-30T19:12:17.491Z,3.50
2023-05-30T19:15:03.126Z,4.13
2023-05-30T19:17:49.913Z,3.33
2023-05-30T19:20:36.057Z,3.43
2023-05-30T19:23:22.020Z,6.37
2023-05-30T19:26:07.598Z,5.17
2023-05-30T19:28:54.490Z,4.30
2023-05-30T19:31:39.838Z,5.20
2023-05-30T19:34:25.167Z,5.47
2023-05-30T19:37:10.720Z,3.97
2023-05-30T19:39:56.341Z,4.67
2023-05-30T19:42:41.846Z,6.73
2023-05-30T19:45:27.742Z,6.30
2023-05-30T19:48:13.531Z,6.10
2023-05-30T19:50:58.915Z,5.40
2023-05-30T19:53:44.630Z,3.17
2023-05-30T19:56:29.876Z,6.60
2023-05-30T19:59:15.303Z,5.90
2023-05-30T20:02:00.851Z,3.60
2023-05-30T20:04:46.433Z,3.40
2023-05-30T20:07:31.691Z,3.23
2023-05-30T20:10:17.087Z,3.87
2023-05-30T20:13:02.982Z,4.73
2023-05-30T20:15:48.361Z,3.37
2023-05-30T20:18:34.201Z,4.10
2023-05-30T20:21:19.803Z,4.10
2023-05-30T20:24:05.716Z,4.10
2023-05-30T20:26:51.257Z,5.47
2023-05-30T20:29:36.673Z,3.80
2023-05-30T20:32:22.094Z,4.13
2023-05-30T20:35:07.628Z,5.13
2023-05-30T20:37:53.175Z,3.67
2023-05-30T20:40:38.779Z,4.60
2023-05-30T20:43:24.435Z,3.93
2023-05-30T20:46:09.822Z,3.70
2023-05-30T20:48:55.553Z,3.67
2023-05-30T20:51:41.068Z,3.67
2023-05-30T20:54:26.440Z,3.17
2023-05-30T20:57:22.784Z,4.23
2023-05-30T21:00:09.770Z,3.73
2023-05-30T21:02:55.300Z,5.87
2023-05-30T21:05:40.928Z,3.30
2023-05-30T21:08:26.308Z,4.03
2023-05-30T21:11:12.398Z,3.47
2023-05-30T21:13:59.193Z,5.10
2023-05-30T21:16:45.995Z,3.47
2023-05-30T21:19:31.664Z,4.07
2023-05-30T21:22:17.007Z,3.77
2023-05-30T21:25:02.440Z,7.57
2023-05-30T21:27:47.751Z,3.53
2023-05-30T21:30:33.001Z,3.83
2023-05-30T21:33:18.303Z,3.23
2023-05-30T21:36:03.585Z,4.70
2023-05-30T21:38:49.650Z,5.43
2023-05-30T21:41:35.427Z,4.13
2023-05-30T21:52:17.719Z,4.43
2023-05-30T21:55:03.856Z,4.67
2023-05-30T21:57:49.264Z,4.23
2023-05-30T22:00:35.193Z,4.67
2023-05-30T22:03:21.603Z,3.80
2023-05-30T22:06:07.295Z,4.80
2023-05-30T22:08:52.813Z,6.20
2023-05-30T22:11:38.216Z,3.30
2023-05-30T22:14:23.496Z,3.20
2023-05-30T22:17:10.251Z,3.83
2023-05-30T22:19:55.599Z,3.53
2023-05-30T22:22:41.034Z,3.33
2023-05-30T22:25:27.502Z,2.93
2023-05-30T22:28:12.805Z,2.43
2023-05-30T22:30:58.048Z,2.67
2023-05-30T22:33:43.225Z,3.03
2023-05-30T22:36:28.439Z,3.73
2023-05-30T22:39:14.218Z,4.77
2023-05-30T22:41:59.586Z,3.77
2023-05-30T22:44:44.843Z,3.93
2023-05-30T22:47:30.184Z,2.90
2023-05-30T22:50:15.519Z,4.20
2023-05-30T22:53:00.816Z,3.53
2023-05-30T22:55:46.153Z,2.93
2023-05-30T22:58:31.599Z,3.67
2023-05-30T23:01:17.823Z,3.93
2023-05-30T23:04:03.553Z,3.60
2023-05-30T23:06:49.207Z,2.70
2023-05-30T23:09:34.437Z,3.40
2023-05-30T23:12:19.737Z,4.13
2023-05-30T23:15:05.670Z,4.30
2023-05-30T23:17:50.872Z,3.93
2023-05-30T23:20:38.690Z,3.00
2023-05-30T23:23:24.369Z,2.60
2023-05-30T23:26:09.620Z,2.67
2023-05-30T23:28:55.274Z,2.97
2023-05-30T23:31:40.451Z,2.57
2023-05-30T23:34:25.655Z,3.30
2023-05-30T23:37:13.332Z,5.53
2023-05-30T23:39:58.723Z,5.37
2023-05-30T23:42:43.994Z,2.50
2023-05-30T23:45:29.127Z,3.60
2023-05-30T23:48:14.644Z,4.63
2023-05-30T23:51:02.754Z,3.50
2023-05-30T23:53:48.505Z,2.97
2023-05-30T23:56:33.913Z,4.10
2023-05-30T23:59:19.190Z,3.03
